Bei Facebook empfehlenBei Twitter postenGoogle plusPinterest

Das Wetter im Erzgebirge am 24.07.2015

Wetter und Klima am 24.07.2015 Holzhau im Erzgebirge (630m ü.NN)
Letzte gemessene Temperatur und Uhrzeit der Messung23:45:00 Uhr17.40 °C
Temperatur (Maximum / Höchstwert) und Uhrzeit der Messung18:00:00 Uhr26.40 °C
Temperatur (Minimum / Tiefstwert) und Uhrzeit der Messung04:30:0011.40 °C
Errechneter Absolutwert der Temperaturschwankungen zwischen Tmin und Tmax des Tages15.00 K
Errechnete Tagesmitteltemperatur19.76875 °C
Gesamt - Niederschlag des Tages (in flüssiger Form)0.00 Liter / m²
Luftdruck (Maximum / Höchstwert) und Zeitpunkt der Messung00:15:00 Uhr1016.20 hPa
Luftdruck (Minimum / Tiefstwert) und Zeitpunkt der Messung23:45:00 Uhr1008.10 hPa
Errechneter Absolutwert der Luftdruckschwankungen des Tages8.10 hPa
Höchste gemessene Windgeschwindigkeit und Uhrzeit der Messung23:45:00 Uhr0.00 km/h
Errechnete Windhäufigkeit in Relation zu den Messwerten des Tages0.00000 %
Niedrigste Windkühle (Windchill) und Zeitpunkt der Messung04:30:00 Uhr11.40 °C
Taupunkt (Maximum / Höchstwert) und Uhrzeit der Messung09:15:00 Uhr15.90 °C
Taupunkt (Minimum / Tiefstwert) und Uhrzeit der Messung04:30:009.70 °C
Anzahl der automatisch eingelesenen Messwerte 96

Detaillierte Wetter- und Klima- Messwerte für den 24.07.2015 in Holzhau im Erzgebirge (630m ü.NN)
ZeitTemperaturLuftdruckRel. LuftfeuchteWindWindrichtungWindchillTaupunktNiederschlag l/m²
23:45:0017.40 °C1008.10 hPa75.00 %12.90 °C 
23:30:0017.70 °C1008.20 hPa74.00 %13.00 °C 
23:15:0017.40 °C1008.50 hPa73.00 %12.50 °C 
23:00:0017.90 °C1008.60 hPa72.00 %12.80 °C 
22:45:0018.40 °C1008.70 hPa70.00 %12.80 °C 
22:30:0018.80 °C1008.90 hPa69.00 %13.00 °C 
22:15:0019.00 °C1009.00 hPa68.00 %13.00 °C 
22:00:0019.10 °C1009.20 hPa67.00 %12.80 °C 
21:45:0019.40 °C1009.50 hPa67.00 %13.10 °C 
21:30:0020.10 °C1009.50 hPa64.00 %13.10 °C 
21:15:0020.90 °C1009.60 hPa61.00 %13.10 °C 
21:00:0021.80 °C1009.70 hPa59.00 %13.40 °C 
20:45:0022.60 °C1009.50 hPa56.00 %13.40 °C 
20:30:0023.30 °C1009.70 hPa55.00 %13.80 °C 
20:15:0024.10 °C1009.70 hPa53.00 %13.90 °C 
20:00:0024.90 °C1009.90 hPa52.00 %14.40 °C 
19:45:0025.40 °C1009.90 hPa52.00 %14.80 °C 
19:30:0025.60 °C1010.10 hPa51.00 %14.70 °C 
19:15:0025.50 °C1010.20 hPa52.00 %14.90 °C 
19:00:0025.10 °C1010.40 hPa52.00 %14.60 °C 
18:45:0025.40 °C1010.60 hPa52.00 %14.80 °C 
18:30:0025.60 °C1010.60 hPa51.00 %14.70 °C 
18:15:0026.30 °C1010.80 hPa51.00 %15.40 °C 
18:00:0026.40 °C1010.80 hPa51.00 %15.40 °C 
17:45:0026.00 °C1010.90 hPa52.00 %15.40 °C 
17:30:0025.80 °C1011.40 hPa53.00 %15.50 °C 
17:15:0025.40 °C1011.40 hPa53.00 %15.10 °C 
17:00:0025.50 °C1011.60 hPa53.00 %15.20 °C 
16:45:0025.10 °C1011.80 hPa53.00 %14.80 °C 
16:30:0025.20 °C1012.00 hPa52.00 %14.60 °C 
16:15:0025.70 °C1012.20 hPa50.00 %14.50 °C 
16:00:0025.90 °C1012.30 hPa50.00 %14.70 °C 
15:45:0026.40 °C1012.60 hPa49.00 %14.80 °C 
15:30:0026.40 °C1012.60 hPa49.00 %14.80 °C 
15:15:0026.30 °C1012.80 hPa48.00 %14.40 °C 
15:00:0026.40 °C1012.80 hPa50.00 %15.10 °C 
14:45:0026.00 °C1013.00 hPa50.00 %14.80 °C 
14:30:0025.90 °C1012.90 hPa51.00 %15.00 °C 
14:15:0025.10 °C1013.10 hPa53.00 %14.80 °C 
14:00:0024.50 °C1013.30 hPa54.00 %14.60 °C 
13:45:0023.90 °C1013.40 hPa54.00 %14.00 °C 
13:30:0023.80 °C1013.60 hPa54.00 %13.90 °C 
13:15:0024.30 °C1013.60 hPa54.00 %14.40 °C 
13:00:0024.40 °C1013.60 hPa55.00 %14.80 °C 
12:45:0024.90 °C1013.70 hPa56.00 %15.50 °C 
12:30:0024.60 °C1013.80 hPa54.00 %14.70 °C 
12:15:0024.90 °C1013.90 hPa55.00 %15.20 °C 
12:00:0024.80 °C1014.00 hPa54.00 %14.90 °C 
11:45:0024.50 °C1014.10 hPa56.00 %15.10 °C 
11:30:0024.30 °C1014.20 hPa57.00 %15.20 °C 
11:15:0024.10 °C1014.20 hPa57.00 %15.10 °C 
11:00:0023.80 °C1014.20 hPa58.00 %15.00 °C 
10:45:0023.40 °C1014.30 hPa59.00 %14.90 °C 
10:30:0022.90 °C1014.30 hPa60.00 %14.70 °C 
10:15:0022.40 °C1014.30 hPa61.00 %14.50 °C 
10:00:0021.80 °C1014.40 hPa63.00 %14.40 °C 
09:45:0021.70 °C1014.70 hPa62.00 %14.10 °C 
09:30:0021.80 °C1014.60 hPa64.00 %14.70 °C 
09:15:0021.80 °C1014.90 hPa69.00 %15.90 °C 
09:00:0020.40 °C1014.90 hPa75.00 %15.80 °C 
08:45:0018.90 °C1015.10 hPa81.00 %15.60 °C 
08:30:0017.30 °C1015.10 hPa85.00 %14.80 °C 
08:15:0016.10 °C1015.20 hPa86.00 %13.80 °C 
08:00:0015.20 °C1015.20 hPa87.00 %13.10 °C 
07:45:0014.80 °C1015.20 hPa86.00 %12.50 °C 
07:30:0014.40 °C1015.00 hPa87.00 %12.30 °C 
07:15:0014.10 °C1015.20 hPa88.00 %12.10 °C 
07:00:0013.60 °C1015.20 hPa88.00 %11.70 °C 
06:45:0013.30 °C1015.20 hPa89.00 %11.50 °C 
06:30:0012.70 °C1015.20 hPa89.00 %10.90 °C 
06:15:0012.30 °C1014.90 hPa89.00 %10.50 °C 
06:00:0012.00 °C1015.10 hPa89.00 %10.20 °C 
05:45:0011.90 °C1014.90 hPa89.00 %10.10 °C 
05:30:0011.60 °C1015.00 hPa89.00 %9.90 °C 
05:15:0011.60 °C1015.20 hPa89.00 %9.90 °C 
05:00:0011.60 °C1015.20 hPa89.00 %9.90 °C 
04:45:0011.50 °C1015.20 hPa89.00 %9.80 °C 
04:30:0011.40 °C1015.30 hPa89.00 %9.70 °C 
04:15:0011.50 °C1015.40 hPa89.00 %9.80 °C 
04:00:0011.80 °C1015.60 hPa89.00 %10.00 °C 
03:45:0011.90 °C1015.70 hPa88.00 %10.00 °C 
03:30:0012.10 °C1015.80 hPa88.00 %10.20 °C 
03:15:0012.30 °C1015.80 hPa87.00 %10.20 °C 
03:00:0012.50 °C1016.00 hPa87.00 %10.40 °C 
02:45:0012.80 °C1016.00 hPa87.00 %10.70 °C 
02:30:0013.00 °C1015.90 hPa87.00 %10.90 °C 
02:15:0013.10 °C1015.60 hPa86.00 %10.80 °C 
02:00:0013.20 °C1015.70 hPa85.00 %10.70 °C 
01:45:0013.40 °C1015.70 hPa84.00 %10.80 °C 
01:30:0013.80 °C1015.70 hPa83.00 %11.00 °C 
01:15:0014.40 °C1015.90 hPa82.00 %11.40 °C 
01:00:0015.20 °C1016.00 hPa80.00 %11.80 °C 
00:45:0015.90 °C1016.10 hPa80.00 %12.50 °C 
00:30:0016.00 °C1016.00 hPa80.00 %12.60 °C 
00:15:0016.20 °C1016.20 hPa80.00 %12.70 °C 
00:00:0016.20 °C1016.20 hPa80.00 %12.70 °C 

Permanenter Link zu dieser Seite: Wetter im Erzgebirge am 24.07.2015
Performance-Info: Die Erstellung der Seite / Statistik(en) / Tabelle(n) erforderte 5 Datenbankserver-Abfrage(n) und dauerte 129 Millisekunden. (Dieser Messwert ist von der Gesamt-Auslastung des Servers abhängig.)
Erzgebirge - Wetter | Erzgebirge - Wetter (Mobilgeräte) | Komplette Klimadatenbank